sensor_id;sensor_type;location;lat;lon;timestamp;temperature;humidity
52869;DHT22;39100;53.480;6.158;2022-11-20T00:00:43;2.60;99.90
52869;DHT22;39100;53.480;6.158;2022-11-20T00:03:09;2.60;99.90
52869;DHT22;39100;53.480;6.158;2022-11-20T00:05:34;2.60;99.90
52869;DHT22;39100;53.480;6.158;2022-11-20T00:08:00;2.60;99.90
52869;DHT22;39100;53.480;6.158;2022-11-20T00:10:25;2.70;99.90
52869;DHT22;39100;53.480;6.158;2022-11-20T00:12:52;2.70;99.90
52869;DHT22;39100;53.480;6.158;2022-11-20T00:15:17;2.70;99.90
52869;DHT22;39100;53.480;6.158;2022-11-20T00:17:43;2.70;99.90
52869;DHT22;39100;53.480;6.158;2022-11-20T00:20:09;2.70;99.90
52869;DHT22;39100;53.480;6.158;2022-11-20T00:22:35;2.70;99.90
52869;DHT22;39100;53.480;6.158;2022-11-20T00:25:00;2.70;99.90
52869;DHT22;39100;53.480;6.158;2022-11-20T00:27:26;2.70;99.90
52869;DHT22;39100;53.480;6.158;2022-11-20T00:29:51;2.70;99.90
52869;DHT22;39100;53.480;6.158;2022-11-20T00:32:17;2.70;99.90
52869;DHT22;39100;53.480;6.158;2022-11-20T00:34:42;2.70;99.90
52869;DHT22;39100;53.480;6.158;2022-11-20T00:37:08;2.70;99.90
52869;DHT22;39100;53.480;6.158;2022-11-20T00:39:33;2.70;99.90
52869;DHT22;39100;53.480;6.158;2022-11-20T00:41:59;2.70;99.90
52869;DHT22;39100;53.480;6.158;2022-11-20T00:44:24;2.80;99.90
52869;DHT22;39100;53.480;6.158;2022-11-20T00:46:50;2.70;99.90
52869;DHT22;39100;53.480;6.158;2022-11-20T00:49:16;2.70;99.90
52869;DHT22;39100;53.480;6.158;2022-11-20T00:51:41;2.70;99.90
52869;DHT22;39100;53.480;6.158;2022-11-20T00:54:07;2.70;99.90
52869;DHT22;39100;53.480;6.158;2022-11-20T00:56:32;2.70;99.90
52869;DHT22;39100;53.480;6.158;2022-11-20T00:58:59;2.70;99.90
52869;DHT22;39100;53.480;6.158;2022-11-20T01:01:26;2.70;99.90
52869;DHT22;39100;53.480;6.158;2022-11-20T01:03:53;2.70;99.90
52869;DHT22;39100;53.480;6.158;2022-11-20T01:06:30;2.70;99.90
52869;DHT22;39100;53.480;6.158;2022-11-20T01:08:59;2.80;99.90
52869;DHT22;39100;53.480;6.158;2022-11-20T01:11:31;2.70;99.90
52869;DHT22;39100;53.480;6.158;2022-11-20T01:13:57;2.80;99.90
52869;DHT22;39100;53.480;6.158;2022-11-20T01:16:29;2.80;99.90
52869;DHT22;39100;53.480;6.158;2022-11-20T01:18:58;2.80;99.90
52869;DHT22;39100;53.480;6.158;2022-11-20T01:21:30;2.80;99.90
52869;DHT22;39100;53.480;6.158;2022-11-20T01:23:56;2.80;99.90
52869;DHT22;39100;53.480;6.158;2022-11-20T01:26:28;2.80;99.90
52869;DHT22;39100;53.480;6.158;2022-11-20T01:28:55;2.80;99.90
52869;DHT22;39100;53.480;6.158;2022-11-20T01:31:43;2.80;99.90
52869;DHT22;39100;53.480;6.158;2022-11-20T01:34:14;2.80;99.90
52869;DHT22;39100;53.480;6.158;2022-11-20T01:36:40;2.80;99.90
52869;DHT22;39100;53.480;6.158;2022-11-20T01:39:10;2.70;99.90
52869;DHT22;39100;53.480;6.158;2022-11-20T01:41:35;2.70;99.90
52869;DHT22;39100;53.480;6.158;2022-11-20T01:44:22;2.70;99.90
52869;DHT22;39100;53.480;6.158;2022-11-20T01:47:07;2.70;99.90
52869;DHT22;39100;53.480;6.158;2022-11-20T01:49:38;2.70;99.90
52869;DHT22;39100;53.480;6.158;2022-11-20T01:52:10;2.80;99.90
52869;DHT22;39100;53.480;6.158;2022-11-20T01:54:51;2.80;99.90
52869;DHT22;39100;53.480;6.158;2022-11-20T01:57:19;2.80;99.90
52869;DHT22;39100;53.480;6.158;2022-11-20T01:59:51;2.90;99.90
52869;DHT22;39100;53.480;6.158;2022-11-20T02:02:20;2.90;99.90
52869;DHT22;39100;53.480;6.158;2022-11-20T02:04:46;2.90;99.90
52869;DHT22;39100;53.480;6.158;2022-11-20T02:07:13;2.90;99.90
52869;DHT22;39100;53.480;6.158;2022-11-20T02:09:39;3.00;99.90
52869;DHT22;39100;53.480;6.158;2022-11-20T02:12:04;3.00;99.90
52869;DHT22;39100;53.480;6.158;2022-11-20T02:14:30;3.00;99.90
52869;DHT22;39100;53.480;6.158;2022-11-20T02:16:56;3.10;99.90
52869;DHT22;39100;53.480;6.158;2022-11-20T02:19:26;3.10;99.90
52869;DHT22;39100;53.480;6.158;2022-11-20T02:22:14;3.10;99.90
52869;DHT22;39100;53.480;6.158;2022-11-20T02:24:41;3.10;99.90
52869;DHT22;39100;53.480;6.158;2022-11-20T02:27:13;3.00;99.90
52869;DHT22;39100;53.480;6.158;2022-11-20T02:29:42;3.10;99.90
52869;DHT22;39100;53.480;6.158;2022-11-20T02:32:28;3.10;99.90
52869;DHT22;39100;53.480;6.158;2022-11-20T02:34:54;3.00;99.90
52869;DHT22;39100;53.480;6.158;2022-11-20T02:37:20;3.00;99.90
52869;DHT22;39100;53.480;6.158;2022-11-20T02:39:48;3.00;99.90
52869;DHT22;39100;53.480;6.158;2022-11-20T02:42:14;3.00;99.90
52869;DHT22;39100;53.480;6.158;2022-11-20T02:44:40;3.00;99.90
52869;DHT22;39100;53.480;6.158;2022-11-20T02:47:06;3.00;99.90
52869;DHT22;39100;53.480;6.158;2022-11-20T02:49:31;2.90;99.90
52869;DHT22;39100;53.480;6.158;2022-11-20T02:51:57;2.90;99.90
52869;DHT22;39100;53.480;6.158;2022-11-20T02:54:23;2.90;99.90
52869;DHT22;39100;53.480;6.158;2022-11-20T02:56:49;2.90;99.90
52869;DHT22;39100;53.480;6.158;2022-11-20T02:59:14;3.00;99.90
52869;DHT22;39100;53.480;6.158;2022-11-20T03:01:40;3.00;99.90
52869;DHT22;39100;53.480;6.158;2022-11-20T03:04:05;3.00;99.90
52869;DHT22;39100;53.480;6.158;2022-11-20T03:06:31;3.00;99.90
52869;DHT22;39100;53.480;6.158;2022-11-20T03:08:57;3.00;99.90
52869;DHT22;39100;53.480;6.158;2022-11-20T03:11:23;3.00;99.90
52869;DHT22;39100;53.480;6.158;2022-11-20T03:13:48;3.00;99.90
52869;DHT22;39100;53.480;6.158;2022-11-20T03:16:21;3.00;99.90
52869;DHT22;39100;53.480;6.158;2022-11-20T03:18:48;3.00;99.90
52869;DHT22;39100;53.480;6.158;2022-11-20T03:21:14;3.00;99.90
52869;DHT22;39100;53.480;6.158;2022-11-20T03:23:40;3.00;99.90
52869;DHT22;39100;53.480;6.158;2022-11-20T03:28:38;3.00;99.90
52869;DHT22;39100;53.480;6.158;2022-11-20T03:31:09;3.00;99.90
52869;DHT22;39100;53.480;6.158;2022-11-20T03:33:35;3.00;99.90
52869;DHT22;39100;53.480;6.158;2022-11-20T03:36:02;3.00;99.90
52869;DHT22;39100;53.480;6.158;2022-11-20T03:38:32;3.00;99.90
52869;DHT22;39100;53.480;6.158;2022-11-20T03:41:00;3.00;99.90
52869;DHT22;39100;53.480;6.158;2022-11-20T03:43:26;3.00;99.90
52869;DHT22;39100;53.480;6.158;2022-11-20T03:45:51;3.00;99.90
52869;DHT22;39100;53.480;6.158;2022-11-20T03:48:17;3.00;99.90
52869;DHT22;39100;53.480;6.158;2022-11-20T03:50:42;3.00;99.90
52869;DHT22;39100;53.480;6.158;2022-11-20T03:53:08;3.00;99.90
52869;DHT22;39100;53.480;6.158;2022-11-20T03:55:33;3.10;99.90
52869;DHT22;39100;53.480;6.158;2022-11-20T03:57:59;3.10;99.90
52869;DHT22;39100;53.480;6.158;2022-11-20T04:00:24;3.10;99.90
52869;DHT22;39100;53.480;6.158;2022-11-20T04:02:50;3.20;99.90
52869;DHT22;39100;53.480;6.158;2022-11-20T04:05:16;3.30;99.90
52869;DHT22;39100;53.480;6.158;2022-11-20T04:07:41;3.30;99.90
52869;DHT22;39100;53.480;6.158;2022-11-20T04:10:07;3.40;99.90
52869;DHT22;39100;53.480;6.158;2022-11-20T04:12:33;3.40;99.90
52869;DHT22;39100;53.480;6.158;2022-11-20T04:14:59;3.40;99.90
52869;DHT22;39100;53.480;6.158;2022-11-20T04:17:24;3.40;99.90
52869;DHT22;39100;53.480;6.158;2022-11-20T04:19:50;3.40;99.90
52869;DHT22;39100;53.480;6.158;2022-11-20T04:22:15;3.40;99.90
52869;DHT22;39100;53.480;6.158;2022-11-20T04:24:41;3.40;99.90
52869;DHT22;39100;53.480;6.158;2022-11-20T04:27:06;3.40;99.90
52869;DHT22;39100;53.480;6.158;2022-11-20T04:29:32;3.40;99.90
52869;DHT22;39100;53.480;6.158;2022-11-20T04:31:57;3.40;99.90
52869;DHT22;39100;53.480;6.158;2022-11-20T04:34:23;3.50;99.90
52869;DHT22;39100;53.480;6.158;2022-11-20T04:36:48;3.60;99.90
52869;DHT22;39100;53.480;6.158;2022-11-20T04:39:14;3.70;99.90
52869;DHT22;39100;53.480;6.158;2022-11-20T04:41:43;3.70;99.90
52869;DHT22;39100;53.480;6.158;2022-11-20T04:44:09;3.70;99.90
52869;DHT22;39100;53.480;6.158;2022-11-20T04:46:40;3.80;99.90
52869;DHT22;39100;53.480;6.158;2022-11-20T04:49:06;3.80;99.90
52869;DHT22;39100;53.480;6.158;2022-11-20T04:51:32;3.90;99.90
52869;DHT22;39100;53.480;6.158;2022-11-20T04:53:58;3.90;99.90
52869;DHT22;39100;53.480;6.158;2022-11-20T04:56:24;3.90;99.90
52869;DHT22;39100;53.480;6.158;2022-11-20T04:58:50;3.90;99.90
52869;DHT22;39100;53.480;6.158;2022-11-20T05:01:18;3.80;99.90
52869;DHT22;39100;53.480;6.158;2022-11-20T05:03:44;3.80;99.90
52869;DHT22;39100;53.480;6.158;2022-11-20T05:06:13;3.70;99.90
52869;DHT22;39100;53.480;6.158;2022-11-20T05:08:40;3.70;99.90
52869;DHT22;39100;53.480;6.158;2022-11-20T05:11:14;3.70;99.90
52869;DHT22;39100;53.480;6.158;2022-11-20T05:13:40;3.70;99.90
52869;DHT22;39100;53.480;6.158;2022-11-20T05:16:17;3.60;99.90
52869;DHT22;39100;53.480;6.158;2022-11-20T05:18:43;3.60;99.90
52869;DHT22;39100;53.480;6.158;2022-11-20T05:21:10;3.50;99.90
52869;DHT22;39100;53.480;6.158;2022-11-20T05:23:37;3.50;99.90
52869;DHT22;39100;53.480;6.158;2022-11-20T05:26:04;3.50;99.90
52869;DHT22;39100;53.480;6.158;2022-11-20T05:28:30;3.50;99.90
52869;DHT22;39100;53.480;6.158;2022-11-20T05:31:03;3.50;99.90
52869;DHT22;39100;53.480;6.158;2022-11-20T05:33:28;3.40;99.90
52869;DHT22;39100;53.480;6.158;2022-11-20T05:35:58;3.40;99.90
52869;DHT22;39100;53.480;6.158;2022-11-20T05:38:23;3.30;99.90
52869;DHT22;39100;53.480;6.158;2022-11-20T05:40:49;3.30;99.90
52869;DHT22;39100;53.480;6.158;2022-11-20T05:43:14;3.30;99.90
52869;DHT22;39100;53.480;6.158;2022-11-20T05:45:40;3.30;99.90
52869;DHT22;39100;53.480;6.158;2022-11-20T05:48:05;3.30;99.90
52869;DHT22;39100;53.480;6.158;2022-11-20T05:50:31;3.30;99.90
52869;DHT22;39100;53.480;6.158;2022-11-20T05:53:00;3.30;99.90
52869;DHT22;39100;53.480;6.158;2022-11-20T05:55:26;3.30;99.90
52869;DHT22;39100;53.480;6.158;2022-11-20T05:57:53;3.30;99.90
52869;DHT22;39100;53.480;6.158;2022-11-20T06:00:20;3.30;99.90
52869;DHT22;39100;53.480;6.158;2022-11-20T06:02:45;3.30;99.90
52869;DHT22;39100;53.480;6.158;2022-11-20T06:05:11;3.30;99.90
52869;DHT22;39100;53.480;6.158;2022-11-20T06:07:36;3.30;99.90
52869;DHT22;39100;53.480;6.158;2022-11-20T06:10:02;3.30;99.90
52869;DHT22;39100;53.480;6.158;2022-11-20T06:12:28;3.30;99.90
52869;DHT22;39100;53.480;6.158;2022-11-20T06:14:53;3.30;99.90
52869;DHT22;39100;53.480;6.158;2022-11-20T06:17:19;3.30;99.90
52869;DHT22;39100;53.480;6.158;2022-11-20T06:19:44;3.30;99.90
52869;DHT22;39100;53.480;6.158;2022-11-20T06:22:10;3.30;99.90
52869;DHT22;39100;53.480;6.158;2022-11-20T06:24:35;3.30;99.90
52869;DHT22;39100;53.480;6.158;2022-11-20T06:27:01;3.40;99.90
52869;DHT22;39100;53.480;6.158;2022-11-20T06:29:26;3.40;99.90
52869;DHT22;39100;53.480;6.158;2022-11-20T06:31:52;3.50;99.90
52869;DHT22;39100;53.480;6.158;2022-11-20T06:34:17;3.50;99.90
52869;DHT22;39100;53.480;6.158;2022-11-20T06:36:43;3.50;99.90
52869;DHT22;39100;53.480;6.158;2022-11-20T06:39:08;3.50;99.90
52869;DHT22;39100;53.480;6.158;2022-11-20T06:41:34;3.50;99.90
52869;DHT22;39100;53.480;6.158;2022-11-20T06:44:00;3.50;99.90
52869;DHT22;39100;53.480;6.158;2022-11-20T06:46:25;3.50;99.90
52869;DHT22;39100;53.480;6.158;2022-11-20T06:48:51;3.50;99.90
52869;DHT22;39100;53.480;6.158;2022-11-20T06:51:17;3.50;99.90
52869;DHT22;39100;53.480;6.158;2022-11-20T06:53:42;3.50;99.90
52869;DHT22;39100;53.480;6.158;2022-11-20T06:56:08;3.50;99.90
52869;DHT22;39100;53.480;6.158;2022-11-20T06:58:35;3.50;99.90
52869;DHT22;39100;53.480;6.158;2022-11-20T07:01:02;3.50;99.90
52869;DHT22;39100;53.480;6.158;2022-11-20T07:03:28;3.50;99.90
52869;DHT22;39100;53.480;6.158;2022-11-20T07:05:55;3.60;99.90
52869;DHT22;39100;53.480;6.158;2022-11-20T07:08:21;3.60;99.90
52869;DHT22;39100;53.480;6.158;2022-11-20T07:10:47;3.60;99.90
52869;DHT22;39100;53.480;6.158;2022-11-20T07:13:13;3.60;99.90
52869;DHT22;39100;53.480;6.158;2022-11-20T07:15:38;3.60;99.90
52869;DHT22;39100;53.480;6.158;2022-11-20T07:18:04;3.60;99.90
52869;DHT22;39100;53.480;6.158;2022-11-20T07:20:29;3.50;99.90
52869;DHT22;39100;53.480;6.158;2022-11-20T07:22:56;3.40;99.90
52869;DHT22;39100;53.480;6.158;2022-11-20T07:25:26;3.30;99.90
52869;DHT22;39100;53.480;6.158;2022-11-20T07:27:52;3.30;99.90
52869;DHT22;39100;53.480;6.158;2022-11-20T07:30:18;3.20;99.90
52869;DHT22;39100;53.480;6.158;2022-11-20T07:32:47;3.20;99.90
52869;DHT22;39100;53.480;6.158;2022-11-20T07:35:15;3.20;99.90
52869;DHT22;39100;53.480;6.158;2022-11-20T07:37:41;3.20;99.90
52869;DHT22;39100;53.480;6.158;2022-11-20T07:40:07;3.30;99.90
52869;DHT22;39100;53.480;6.158;2022-11-20T07:42:33;3.30;99.90
52869;DHT22;39100;53.480;6.158;2022-11-20T07:44:58;3.30;99.90
52869;DHT22;39100;53.480;6.158;2022-11-20T07:47:24;3.30;99.90
52869;DHT22;39100;53.480;6.158;2022-11-20T07:49:50;3.30;99.90
52869;DHT22;39100;53.480;6.158;2022-11-20T07:52:15;3.20;99.90
52869;DHT22;39100;53.480;6.158;2022-11-20T07:54:41;3.20;99.90
52869;DHT22;39100;53.480;6.158;2022-11-20T07:57:06;3.20;99.90
52869;DHT22;39100;53.480;6.158;2022-11-20T07:59:32;3.10;99.90
52869;DHT22;39100;53.480;6.158;2022-11-20T08:01:57;3.10;99.90
52869;DHT22;39100;53.480;6.158;2022-11-20T08:04:23;3.10;99.90
52869;DHT22;39100;53.480;6.158;2022-11-20T08:06:49;3.10;99.90
52869;DHT22;39100;53.480;6.158;2022-11-20T08:09:14;3.10;99.90
52869;DHT22;39100;53.480;6.158;2022-11-20T08:11:40;3.10;99.90
52869;DHT22;39100;53.480;6.158;2022-11-20T08:14:24;3.20;99.90
52869;DHT22;39100;53.480;6.158;2022-11-20T08:16:50;3.10;99.90
52869;DHT22;39100;53.480;6.158;2022-11-20T08:19:17;3.20;99.90
52869;DHT22;39100;53.480;6.158;2022-11-20T08:21:43;3.20;99.90
52869;DHT22;39100;53.480;6.158;2022-11-20T08:24:10;3.30;99.90
52869;DHT22;39100;53.480;6.158;2022-11-20T08:26:36;3.40;99.90
52869;DHT22;39100;53.480;6.158;2022-11-20T08:29:03;3.50;99.90
52869;DHT22;39100;53.480;6.158;2022-11-20T08:31:29;3.60;99.90
52869;DHT22;39100;53.480;6.158;2022-11-20T08:33:55;3.60;99.90
52869;DHT22;39100;53.480;6.158;2022-11-20T08:36:22;3.70;99.90
52869;DHT22;39100;53.480;6.158;2022-11-20T08:38:54;3.70;99.90
52869;DHT22;39100;53.480;6.158;2022-11-20T08:41:20;3.80;99.90
52869;DHT22;39100;53.480;6.158;2022-11-20T08:43:50;3.90;99.90
52869;DHT22;39100;53.480;6.158;2022-11-20T08:46:16;3.90;99.90
52869;DHT22;39100;53.480;6.158;2022-11-20T08:48:42;3.90;99.90
52869;DHT22;39100;53.480;6.158;2022-11-20T08:51:08;3.90;99.90
52869;DHT22;39100;53.480;6.158;2022-11-20T08:53:34;4.00;99.90
52869;DHT22;39100;53.480;6.158;2022-11-20T08:55:59;4.00;99.90
52869;DHT22;39100;53.480;6.158;2022-11-20T08:58:26;4.00;99.90
52869;DHT22;39100;53.480;6.158;2022-11-20T09:00:51;4.10;99.90
52869;DHT22;39100;53.480;6.158;2022-11-20T09:03:17;4.20;99.90
52869;DHT22;39100;53.480;6.158;2022-11-20T09:05:42;4.20;99.90
52869;DHT22;39100;53.480;6.158;2022-11-20T09:08:08;4.30;99.90
52869;DHT22;39100;53.480;6.158;2022-11-20T09:10:34;4.30;99.90
52869;DHT22;39100;53.480;6.158;2022-11-20T09:12:59;4.30;99.90
52869;DHT22;39100;53.480;6.158;2022-11-20T09:15:25;4.30;99.90
52869;DHT22;39100;53.480;6.158;2022-11-20T09:17:55;4.40;99.90
52869;DHT22;39100;53.480;6.158;2022-11-20T09:20:21;4.40;99.90
52869;DHT22;39100;53.480;6.158;2022-11-20T09:22:47;4.40;99.90
52869;DHT22;39100;53.480;6.158;2022-11-20T09:25:12;4.40;99.90
52869;DHT22;39100;53.480;6.158;2022-11-20T09:27:38;4.50;99.90
52869;DHT22;39100;53.480;6.158;2022-11-20T09:30:05;4.50;99.90
52869;DHT22;39100;53.480;6.158;2022-11-20T09:32:30;4.30;99.90
52869;DHT22;39100;53.480;6.158;2022-11-20T09:34:56;4.40;99.90
52869;DHT22;39100;53.480;6.158;2022-11-20T09:37:21;4.50;99.90
52869;DHT22;39100;53.480;6.158;2022-11-20T09:39:47;4.50;99.90
52869;DHT22;39100;53.480;6.158;2022-11-20T09:42:25;4.60;99.90
52869;DHT22;39100;53.480;6.158;2022-11-20T09:50:50;4.60;99.90
52869;DHT22;39100;53.480;6.158;2022-11-20T09:56:04;4.70;99.90
52869;DHT22;39100;53.480;6.158;2022-11-20T09:58:45;4.80;99.90
52869;DHT22;39100;53.480;6.158;2022-11-20T10:01:21;4.90;99.90
52869;DHT22;39100;53.480;6.158;2022-11-20T10:04:03;5.00;99.90
52869;DHT22;39100;53.480;6.158;2022-11-20T10:06:39;5.00;99.90
52869;DHT22;39100;53.480;6.158;2022-11-20T10:09:15;4.90;99.90
52869;DHT22;39100;53.480;6.158;2022-11-20T10:11:53;5.00;99.90
52869;DHT22;39100;53.480;6.158;2022-11-20T10:17:34;4.90;99.90
52869;DHT22;39100;53.480;6.158;2022-11-20T10:20:16;5.10;99.90
52869;DHT22;39100;53.480;6.158;2022-11-20T10:23:02;5.20;99.90
52869;DHT22;39100;53.480;6.158;2022-11-20T10:25:37;5.20;99.90
52869;DHT22;39100;53.480;6.158;2022-11-20T10:31:25;5.30;99.90
52869;DHT22;39100;53.480;6.158;2022-11-20T10:33:54;5.30;99.90
52869;DHT22;39100;53.480;6.158;2022-11-20T10:36:27;5.20;99.90
52869;DHT22;39100;53.480;6.158;2022-11-20T10:39:00;5.20;99.90
52869;DHT22;39100;53.480;6.158;2022-11-20T10:41:33;5.30;99.90
52869;DHT22;39100;53.480;6.158;2022-11-20T10:44:15;5.30;99.90
52869;DHT22;39100;53.480;6.158;2022-11-20T10:47:00;5.40;99.90
52869;DHT22;39100;53.480;6.158;2022-11-20T10:49:26;5.40;99.90
52869;DHT22;39100;53.480;6.158;2022-11-20T10:57:35;5.60;99.90
52869;DHT22;39100;53.480;6.158;2022-11-20T11:00:11;5.50;99.90
52869;DHT22;39100;53.480;6.158;2022-11-20T11:02:48;5.30;99.90
52869;DHT22;39100;53.480;6.158;2022-11-20T11:05:25;5.10;99.90
52869;DHT22;39100;53.480;6.158;2022-11-20T11:07:55;4.90;99.90
52869;DHT22;39100;53.480;6.158;2022-11-20T11:10:24;4.90;99.90
52869;DHT22;39100;53.480;6.158;2022-11-20T11:12:51;4.80;99.90
52869;DHT22;39100;53.480;6.158;2022-11-20T11:15:29;4.90;99.90
52869;DHT22;39100;53.480;6.158;2022-11-20T11:17:56;4.80;99.90
52869;DHT22;39100;53.480;6.158;2022-11-20T11:20:24;4.80;99.90
52869;DHT22;39100;53.480;6.158;2022-11-20T11:22:53;4.90;99.90
52869;DHT22;39100;53.480;6.158;2022-11-20T11:25:30;4.80;99.90
52869;DHT22;39100;53.480;6.158;2022-11-20T11:30:44;4.70;99.90
52869;DHT22;39100;53.480;6.158;2022-11-20T11:33:17;4.70;99.90
52869;DHT22;39100;53.480;6.158;2022-11-20T11:35:46;4.60;99.90
52869;DHT22;39100;53.480;6.158;2022-11-20T11:38:32;4.60;99.90
52869;DHT22;39100;53.480;6.158;2022-11-20T11:40:59;4.60;99.90
52869;DHT22;39100;53.480;6.158;2022-11-20T11:43:29;4.60;99.90
52869;DHT22;39100;53.480;6.158;2022-11-20T11:46:31;4.60;99.90
52869;DHT22;39100;53.480;6.158;2022-11-20T11:51:34;4.70;99.90
52869;DHT22;39100;53.480;6.158;2022-11-20T11:54:00;4.70;99.90
52869;DHT22;39100;53.480;6.158;2022-11-20T11:56:29;4.80;99.90
52869;DHT22;39100;53.480;6.158;2022-11-20T11:58:59;4.80;99.90
52869;DHT22;39100;53.480;6.158;2022-11-20T12:01:34;4.80;99.90
52869;DHT22;39100;53.480;6.158;2022-11-20T12:04:21;4.90;99.90
52869;DHT22;39100;53.480;6.158;2022-11-20T12:07:00;4.90;99.90
52869;DHT22;39100;53.480;6.158;2022-11-20T12:09:42;5.00;99.90
52869;DHT22;39100;53.480;6.158;2022-11-20T12:12:18;5.00;99.90
52869;DHT22;39100;53.480;6.158;2022-11-20T12:14:47;5.00;99.90
52869;DHT22;39100;53.480;6.158;2022-11-20T12:17:15;5.00;99.90
52869;DHT22;39100;53.480;6.158;2022-11-20T12:19:41;5.00;99.90
52869;DHT22;39100;53.480;6.158;2022-11-20T12:22:24;4.90;99.90
52869;DHT22;39100;53.480;6.158;2022-11-20T12:25:17;5.00;99.90
52869;DHT22;39100;53.480;6.158;2022-11-20T12:28:01;4.90;99.90
52869;DHT22;39100;53.480;6.158;2022-11-20T12:30:28;4.90;99.90
52869;DHT22;39100;53.480;6.158;2022-11-20T12:38:45;4.80;99.90
52869;DHT22;39100;53.480;6.158;2022-11-20T12:41:35;4.70;99.90
52869;DHT22;39100;53.480;6.158;2022-11-20T12:56:26;4.50;99.90
52869;DHT22;39100;53.480;6.158;2022-11-20T12:59:23;4.50;99.90
52869;DHT22;39100;53.480;6.158;2022-11-20T13:01:55;4.50;99.90
52869;DHT22;39100;53.480;6.158;2022-11-20T13:07:10;4.60;99.90
52869;DHT22;39100;53.480;6.158;2022-11-20T13:09:45;4.70;99.90
52869;DHT22;39100;53.480;6.158;2022-11-20T13:12:19;4.70;99.90
52869;DHT22;39100;53.480;6.158;2022-11-20T13:17:57;4.80;99.90
52869;DHT22;39100;53.480;6.158;2022-11-20T13:20:24;4.80;99.90
52869;DHT22;39100;53.480;6.158;2022-11-20T13:22:52;4.80;99.90
52869;DHT22;39100;53.480;6.158;2022-11-20T13:25:32;4.80;99.90
52869;DHT22;39100;53.480;6.158;2022-11-20T13:28:00;4.80;99.90
52869;DHT22;39100;53.480;6.158;2022-11-20T13:30:27;4.70;99.90
52869;DHT22;39100;53.480;6.158;2022-11-20T13:33:02;4.80;99.90
52869;DHT22;39100;53.480;6.158;2022-11-20T13:35:37;4.70;99.90
52869;DHT22;39100;53.480;6.158;2022-11-20T13:38:12;4.70;99.90
52869;DHT22;39100;53.480;6.158;2022-11-20T13:40:54;4.70;99.90
52869;DHT22;39100;53.480;6.158;2022-11-20T13:43:37;4.70;99.90
52869;DHT22;39100;53.480;6.158;2022-11-20T13:46:05;4.70;99.90
52869;DHT22;39100;53.480;6.158;2022-11-20T13:48:34;4.70;99.90
52869;DHT22;39100;53.480;6.158;2022-11-20T13:57:19;4.70;99.90
52869;DHT22;39100;53.480;6.158;2022-11-20T14:02:44;4.60;99.90
52869;DHT22;39100;53.480;6.158;2022-11-20T14:05:22;4.60;99.90
52869;DHT22;39100;53.480;6.158;2022-11-20T14:07:50;4.60;99.90
52869;DHT22;39100;53.480;6.158;2022-11-20T14:10:24;4.50;99.90
52869;DHT22;39100;53.480;6.158;2022-11-20T14:12:50;4.50;99.90
52869;DHT22;39100;53.480;6.158;2022-11-20T14:15:30;4.50;99.90
52869;DHT22;39100;53.480;6.158;2022-11-20T14:17:57;5.10;99.90
52869;DHT22;39100;53.480;6.158;2022-11-20T14:20:28;4.50;99.90
52869;DHT22;39100;53.480;6.158;2022-11-20T14:22:56;4.50;99.90
52869;DHT22;39100;53.480;6.158;2022-11-20T14:25:25;4.50;99.90
52869;DHT22;39100;53.480;6.158;2022-11-20T14:27:57;4.40;99.90
52869;DHT22;39100;53.480;6.158;2022-11-20T14:30:44;4.40;99.90
52869;DHT22;39100;53.480;6.158;2022-11-20T14:33:11;4.40;99.90
52869;DHT22;39100;53.480;6.158;2022-11-20T14:35:45;4.40;99.90
52869;DHT22;39100;53.480;6.158;2022-11-20T14:38:14;4.30;99.90
52869;DHT22;39100;53.480;6.158;2022-11-20T14:40:40;4.30;99.90
52869;DHT22;39100;53.480;6.158;2022-11-20T14:43:22;4.30;99.90
52869;DHT22;39100;53.480;6.158;2022-11-20T14:46:07;4.30;99.90
52869;DHT22;39100;53.480;6.158;2022-11-20T14:48:38;4.20;99.90
52869;DHT22;39100;53.480;6.158;2022-11-20T14:51:04;4.20;99.90
52869;DHT22;39100;53.480;6.158;2022-11-20T14:53:30;4.20;99.90
52869;DHT22;39100;53.480;6.158;2022-11-20T14:56:00;4.30;99.90
52869;DHT22;39100;53.480;6.158;2022-11-20T14:58:29;4.30;99.90
52869;DHT22;39100;53.480;6.158;2022-11-20T15:01:06;4.20;99.90
52869;DHT22;39100;53.480;6.158;2022-11-20T15:03:37;4.20;99.90
52869;DHT22;39100;53.480;6.158;2022-11-20T15:06:05;4.20;99.90
52869;DHT22;39100;53.480;6.158;2022-11-20T15:08:31;4.10;99.90
52869;DHT22;39100;53.480;6.158;2022-11-20T15:10:57;4.10;99.90
52869;DHT22;39100;53.480;6.158;2022-11-20T15:13:34;4.10;99.90
52869;DHT22;39100;53.480;6.158;2022-11-20T15:16:02;4.10;99.90
52869;DHT22;39100;53.480;6.158;2022-11-20T15:18:33;4.00;99.90
52869;DHT22;39100;53.480;6.158;2022-11-20T15:21:03;4.10;99.90
52869;DHT22;39100;53.480;6.158;2022-11-20T15:23:29;4.20;99.90
52869;DHT22;39100;53.480;6.158;2022-11-20T15:25:55;4.20;99.90
52869;DHT22;39100;53.480;6.158;2022-11-20T15:28:27;4.20;99.90
52869;DHT22;39100;53.480;6.158;2022-11-20T15:30:54;4.20;99.90
52869;DHT22;39100;53.480;6.158;2022-11-20T15:33:21;4.20;99.90
52869;DHT22;39100;53.480;6.158;2022-11-20T15:35:47;4.20;99.90
52869;DHT22;39100;53.480;6.158;2022-11-20T15:38:12;4.20;99.90
52869;DHT22;39100;53.480;6.158;2022-11-20T15:40:38;4.20;99.90
52869;DHT22;39100;53.480;6.158;2022-11-20T15:43:04;4.20;99.90
52869;DHT22;39100;53.480;6.158;2022-11-20T15:48:00;4.20;99.90
52869;DHT22;39100;53.480;6.158;2022-11-20T15:50:33;4.20;99.90
52869;DHT22;39100;53.480;6.158;2022-11-20T15:52:59;4.10;99.90
52869;DHT22;39100;53.480;6.158;2022-11-20T15:55:25;4.10;99.90
52869;DHT22;39100;53.480;6.158;2022-11-20T15:57:50;4.10;99.90
52869;DHT22;39100;53.480;6.158;2022-11-20T16:00:16;4.10;99.90
52869;DHT22;39100;53.480;6.158;2022-11-20T16:02:42;4.10;99.90
52869;DHT22;39100;53.480;6.158;2022-11-20T16:05:11;4.10;99.90
52869;DHT22;39100;53.480;6.158;2022-11-20T16:07:37;4.10;99.90
52869;DHT22;39100;53.480;6.158;2022-11-20T16:10:03;4.10;99.90
52869;DHT22;39100;53.480;6.158;2022-11-20T16:12:29;4.10;99.90
52869;DHT22;39100;53.480;6.158;2022-11-20T16:15:13;4.10;99.90
52869;DHT22;39100;53.480;6.158;2022-11-20T16:17:57;4.10;99.90
52869;DHT22;39100;53.480;6.158;2022-11-20T16:20:23;4.10;99.90
52869;DHT22;39100;53.480;6.158;2022-11-20T16:22:49;4.10;99.90
52869;DHT22;39100;53.480;6.158;2022-11-20T16:25:14;4.00;99.90
52869;DHT22;39100;53.480;6.158;2022-11-20T16:27:40;4.10;99.90
52869;DHT22;39100;53.480;6.158;2022-11-20T16:30:06;5.10;99.90
52869;DHT22;39100;53.480;6.158;2022-11-20T16:32:32;4.10;99.90
52869;DHT22;39100;53.480;6.158;2022-11-20T16:34:57;4.00;99.90
52869;DHT22;39100;53.480;6.158;2022-11-20T16:37:23;4.00;99.90
52869;DHT22;39100;53.480;6.158;2022-11-20T16:39:48;4.00;99.90
52869;DHT22;39100;53.480;6.158;2022-11-20T16:42:14;4.00;99.90
52869;DHT22;39100;53.480;6.158;2022-11-20T16:44:39;4.00;99.90
52869;DHT22;39100;53.480;6.158;2022-11-20T16:47:05;3.90;99.90
52869;DHT22;39100;53.480;6.158;2022-11-20T16:49:30;3.90;99.90
52869;DHT22;39100;53.480;6.158;2022-11-20T16:51:57;3.90;99.90
52869;DHT22;39100;53.480;6.158;2022-11-20T16:54:23;3.80;99.90
52869;DHT22;39100;53.480;6.158;2022-11-20T16:56:49;3.80;99.90
52869;DHT22;39100;53.480;6.158;2022-11-20T16:59:16;3.80;99.90